This is the latest recevied weather packets stored in our database for station/object W0AKY-13. If no packets are shown the sender has not sent any weather packets the latest 10 day(s).
| Time | Temp. | Humidity | Pressure | Rain* | Wind** | Luminosity | Snow |
|---|---|---|---|---|---|---|---|
| 1777602003 | 7.78° C | 66% | 1020.5 hPa | 0 mm | - | 0 W/m² | - |
| 1777601698 | 8.33° C | 65% | 1020.3 hPa | 0 mm | - | 0 W/m² | - |
| 1777601393 | 8.89° C | 63% | 1020.4 hPa | 0 mm | - | 0 W/m² | - |
| 1777601090 | 9.44° C | 62% | 1020.5 hPa | 0 mm | - | 0 W/m² | - |
| 1777585906 | 15.56° C | 48% | 1019.2 hPa | 0 mm | - | 402 W/m² | - |
| 1777585606 | 14.44° C | 50% | 1019.2 hPa | 0 mm | - | 172 W/m² | - |
| 1777584996 | 13.89° C | 49% | 1019.2 hPa | 0 mm | - | 104 W/m² | - |
| 1777584390 | 15° C | 46% | 1019.1 hPa | 0 mm | - | 173 W/m² | - |
| 1777583786 | 15° C | 43% | 1019.3 hPa | 0 mm | - | 551 W/m² | - |
| 1777583181 | 14.44° C | 46% | 1019.2 hPa | 0 mm | - | 497 W/m² | - |
| 1777582574 | 15.56° C | 44% | 1019.1 hPa | 0 mm | - | 440 W/m² | - |
| 1777582269 | 15.56° C | 44% | 1019.5 hPa | 0 mm | - | 562 W/m² | - |
| 1777581961 | 15.56° C | 46% | 1019.5 hPa | 0 mm | - | 375 W/m² | - |
| 1777581046 | 14.44° C | 48% | 1019.7 hPa | 0 mm | - | 181 W/m² | - |
| 1777580744 | 13.89° C | 53% | 1019.6 hPa | 0 mm | - | 538 W/m² | - |
| 1777580442 | 13.89° C | 49% | 1019.6 hPa | 0 mm | - | 181 W/m² | - |
| 1777580137 | 13.89° C | 47% | 1019.7 hPa | 0 mm | - | 107 W/m² | - |
| 1777579833 | 15° C | 47% | 1019.6 hPa | 0 mm | - | 380 W/m² | - |
| 1777579533 | 15° C | 47% | 1019.5 hPa | 0 mm | - | 199 W/m² | - |
| 1777579232 | 13.89° C | 47% | 1019.7 hPa | 0 mm | - | 639 W/m² | - |
| 1777578928 | 15° C | 50% | 1019.8 hPa | 0 mm | - | 279 W/m² | - |
| 1777578623 | 15° C | 48% | 1019.6 hPa | 0 mm | - | 584 W/m² | - |
| 1777578323 | 13.89° C | 53% | 1019.6 hPa | 0 mm | - | 513 W/m² | - |
| 1777577714 | 13.89° C | 55% | 1019.7 hPa | 0 mm | - | 680 W/m² | - |
| 1777577411 | 13.89° C | 55% | 1019.7 hPa | 0 mm | - | 579 W/m² | - |
* Rain latest hour (hover to see other rain measurements)
** Current wind speed in m/s (hover to see current wind gust speed)